createdAt,value
2022-08-22T00:03:09.861Z,41.60
2022-08-22T00:05:56.492Z,42.15
2022-08-22T00:15:57.765Z,42.12
2022-08-22T00:25:59.095Z,42.14
2022-08-22T00:36:00.362Z,42.00
2022-08-22T00:46:01.625Z,42.07
2022-08-22T01:06:31.878Z,42.36
2022-08-22T01:16:33.134Z,42.28
2022-08-22T01:26:34.408Z,42.03
2022-08-22T01:36:38.198Z,42.16
2022-08-22T01:46:39.473Z,42.35
2022-08-22T01:56:40.762Z,42.34
2022-08-22T02:06:42.030Z,42.06
2022-08-22T02:16:43.296Z,42.10
2022-08-22T02:26:44.547Z,41.83
2022-08-22T02:36:45.879Z,42.05
2022-08-22T02:46:47.179Z,41.82
2022-08-22T02:56:48.429Z,42.15
2022-08-22T03:06:49.666Z,42.18
2022-08-22T03:16:50.921Z,41.93
2022-08-22T03:26:52.194Z,42.15
2022-08-22T03:36:53.451Z,42.07
2022-08-22T03:46:54.732Z,42.20
2022-08-22T03:56:58.906Z,42.33
2022-08-22T04:07:01.896Z,42.32
2022-08-22T04:17:03.156Z,43.77
2022-08-22T04:27:04.446Z,44.23
2022-08-22T04:37:05.741Z,47.27
2022-08-22T04:47:07.015Z,47.76
2022-08-22T04:57:08.275Z,47.36
2022-08-22T05:07:09.590Z,49.18
2022-08-22T05:17:10.869Z,50.31
2022-08-22T05:27:16.748Z,50.36
2022-08-22T05:37:20.432Z,49.95
2022-08-22T05:47:21.747Z,49.88
2022-08-22T05:57:23.017Z,51.13
2022-08-22T06:07:24.300Z,51.53
2022-08-22T06:17:25.600Z,51.70
2022-08-22T06:27:26.930Z,51.18
2022-08-22T06:37:32.663Z,52.63
2022-08-22T06:47:35.813Z,52.53
2022-08-22T06:57:37.586Z,51.92
2022-08-22T07:07:39.013Z,51.62
2022-08-22T07:27:55.994Z,52.81
2022-08-22T07:38:00.741Z,53.05
2022-08-22T07:48:02.756Z,52.02
2022-08-22T07:58:08.731Z,50.88
2022-08-22T08:08:15.548Z,50.90
2022-08-22T08:18:21.684Z,51.52
2022-08-22T08:28:23.141Z,51.06
2022-08-22T08:38:24.661Z,50.71
2022-08-22T08:48:26.069Z,50.93
2022-08-22T08:58:27.499Z,49.97
2022-08-22T09:08:28.916Z,49.51
2022-08-22T09:18:30.454Z,49.10
2022-08-22T09:28:31.838Z,49.00
2022-08-22T09:38:33.125Z,48.58
2022-08-22T09:48:36.168Z,47.98
2022-08-22T09:58:40.824Z,47.68
2022-08-22T10:08:46.062Z,46.90
2022-08-22T10:18:53.751Z,45.93
2022-08-22T10:28:56.949Z,45.86
2022-08-22T10:38:58.326Z,45.89
2022-08-22T10:49:00.320Z,45.28
2022-08-22T10:59:09.342Z,45.33
2022-08-22T11:09:10.716Z,45.03
2022-08-22T11:19:14.704Z,44.47
2022-08-22T11:29:17.075Z,43.90
2022-08-22T11:39:19.680Z,43.75
2022-08-22T11:49:21.098Z,43.48
2022-08-22T11:59:28.433Z,43.18
2022-08-22T12:09:29.961Z,43.09
2022-08-22T12:19:32.752Z,43.00
2022-08-22T12:29:39.985Z,42.91
2022-08-22T12:39:46.649Z,43.25
2022-08-22T12:49:55.815Z,42.81
2022-08-22T13:00:03.794Z,43.09
2022-08-22T13:10:11.798Z,42.94
2022-08-22T13:20:20.808Z,42.81
2022-08-22T13:30:26.274Z,43.77
2022-08-22T13:40:34.764Z,43.44
2022-08-22T13:50:53.107Z,43.92
2022-08-22T14:00:58.073Z,43.50
2022-08-22T14:11:02.021Z,43.88
2022-08-22T14:21:10.816Z,43.71
2022-08-22T14:31:18.075Z,43.98
2022-08-22T14:41:24.926Z,43.99
2022-08-22T14:51:32.937Z,43.64
2022-08-22T15:01:40.930Z,43.53
2022-08-22T15:11:46.896Z,43.15
2022-08-22T15:21:55.271Z,43.21
2022-08-22T15:42:13.624Z,42.88
2022-08-22T15:52:19.533Z,42.93
2022-08-22T16:02:21.492Z,42.68
2022-08-22T16:12:23.066Z,43.13
2022-08-22T16:22:24.473Z,42.60
2022-08-22T16:32:25.990Z,42.32
2022-08-22T16:42:27.277Z,41.76
2022-08-22T16:52:28.589Z,41.79
2022-08-22T17:02:30.073Z,41.46
2022-08-22T17:12:31.461Z,41.63
2022-08-22T17:22:32.847Z,41.42
2022-08-22T17:32:37.976Z,41.05
2022-08-22T17:42:45.839Z,41.02
2022-08-22T17:52:56.706Z,40.90
2022-08-22T18:03:02.143Z,41.03
2022-08-22T18:13:10.227Z,41.46
2022-08-22T18:23:21.498Z,41.62
2022-08-22T18:43:51.962Z,41.45
2022-08-22T18:53:53.227Z,41.57
2022-08-22T19:03:54.625Z,41.79
2022-08-22T19:13:56.157Z,41.44
2022-08-22T19:23:57.583Z,41.55
2022-08-22T19:33:59.324Z,41.48
2022-08-22T19:44:00.742Z,41.51
2022-08-22T19:54:02.061Z,41.52
2022-08-22T20:04:03.470Z,41.48
2022-08-22T20:14:04.797Z,41.93
2022-08-22T20:24:06.257Z,41.76
2022-08-22T20:34:07.698Z,41.58
2022-08-22T20:44:08.982Z,41.51
2022-08-22T20:54:19.104Z,41.44
2022-08-22T21:04:20.466Z,41.30
2022-08-22T21:14:21.845Z,41.22
2022-08-22T21:24:23.274Z,41.64
2022-08-22T21:34:27.242Z,41.44
2022-08-22T21:44:28.509Z,41.34
2022-08-22T21:54:29.759Z,41.10
2022-08-22T22:04:31.108Z,41.34
2022-08-22T22:14:32.354Z,41.23
2022-08-22T22:24:33.653Z,41.23
2022-08-22T22:34:34.902Z,41.43
2022-08-22T22:44:36.140Z,41.30
2022-08-22T22:54:37.446Z,41.49
2022-08-22T23:04:38.839Z,41.53
2022-08-22T23:14:42.720Z,41.18
2022-08-22T23:24:44.022Z,41.16
2022-08-22T23:34:47.707Z,41.42
2022-08-22T23:44:48.966Z,41.37
2022-08-22T23:54:51.544Z,41.19
